Time;durP1;ratioP1;P1;durP2;ratioP2;P2;SDS_P1;SDS_P2;PMS_P1;PMS_P2;Temp;Humidity;BMP_temperature;BMP_pressure;BME280_temperature;BME280_humidity;BME280_pressure;Samples;Min_cycle;Max_cycle;Signal;HPM_P1;HPM_P2
2023/08/10 00:00:53;;;;;;;;;;;20.50;71.10;;;;;;4998179;28;942;-71
2023/08/10 00:03:18;;;;;;;;;;;20.50;71.10;;;;;;5000819;28;1894;-71
2023/08/10 00:05:44;;;;;;;;;;;20.50;71.10;;;;;;4999746;28;1370;-69
2023/08/10 00:08:09;;;;;;;;;;;20.50;71.10;;;;;;4997409;28;876;-69
2023/08/10 00:10:35;;;;;;;;;;;20.50;71.10;;;;;;4997642;28;873;-69
2023/08/10 00:13:01;;;;;;;;;;;20.50;71.10;;;;;;4998519;28;919;-69
2023/08/10 00:15:26;;;;;;;;;;;20.50;71.10;;;;;;4999411;28;1323;-68
2023/08/10 00:17:52;;;;;;;;;;;20.50;71.10;;;;;;4998618;28;967;-69
2023/08/10 00:20:17;;;;;;;;;;;20.50;71.10;;;;;;4997317;28;1351;-69
2023/08/10 00:22:42;;;;;;;;;;;20.50;71.10;;;;;;4997351;28;1964;-69
2023/08/10 00:25:08;;;;;;;;;;;20.50;71.10;;;;;;5000034;28;1237;-70
2023/08/10 00:27:34;;;;;;;;;;;20.50;71.90;;;;;;5002483;28;928;-70
2023/08/10 00:29:59;;;;;;;;;;;20.50;71.10;;;;;;4983252;28;903;-70
2023/08/10 00:32:25;;;;;;;;;;;20.50;71.20;;;;;;4999818;28;845;-69
2023/08/10 00:34:50;;;;;;;;;;;20.50;71.10;;;;;;4997557;28;1280;-69
2023/08/10 00:37:16;;;;;;;;;;;20.50;71.10;;;;;;4997814;28;908;-69
2023/08/10 00:39:41;;;;;;;;;;;20.50;71.10;;;;;;4999621;28;1376;-69
2023/08/10 00:42:07;;;;;;;;;;;20.50;71.10;;;;;;4997607;28;1926;-69
2023/08/10 00:44:32;;;;;;;;;;;20.50;71.10;;;;;;5000005;28;1209;-70
2023/08/10 00:46:58;;;;;;;;;;;20.50;71.20;;;;;;5000221;28;916;-69
2023/08/10 00:49:23;;;;;;;;;;;20.50;71.10;;;;;;4995505;28;1035;-70
2023/08/10 00:51:49;;;;;;;;;;;20.50;71.10;;;;;;4999411;28;1146;-69
2023/08/10 00:54:14;;;;;;;;;;;20.50;71.10;;;;;;4998236;28;1528;-69
2023/08/10 00:56:40;;;;;;;;;;;20.50;71.10;;;;;;4998000;28;1326;-69
2023/08/10 00:59:05;;;;;;;;;;;20.50;71.20;;;;;;5000548;28;892;-69
2023/08/10 01:01:30;;;;;;;;;;;20.50;71.20;;;;;;4996842;28;1894;-70
2023/08/10 01:03:56;;;;;;;;;;;20.50;71.10;;;;;;5000365;28;853;-69
2023/08/10 01:06:21;;;;;;;;;;;20.50;71.90;;;;;;5001766;28;1342;-70
2023/08/10 01:09:16;;;;;;;;;;;20.50;71.20;;;;;;4998287;28;903;-68
2023/08/10 01:11:54;;;;;;;;;;;20.50;71.10;;;;;;4981060;28;1307;-68
2023/08/10 01:14:25;;;;;;;;;;;20.50;71.10;;;;;;4998482;28;858;-68
2023/08/10 01:16:51;;;;;;;;;;;20.50;71.10;;;;;;4997921;28;1323;-70
2023/08/10 01:19:39;;;;;;;;;;;20.50;71.20;;;;;;4991768;28;1802;-69
2023/08/10 01:22:09;;;;;;;;;;;20.50;71.20;;;;;;4996500;28;1965;-69
2023/08/10 01:24:39;;;;;;;;;;;20.50;71.20;;;;;;5003486;28;1272;-69
2023/08/10 01:27:04;;;;;;;;;;;20.50;71.20;;;;;;5003369;28;920;-69
2023/08/10 01:29:30;;;;;;;;;;;20.50;71.20;;;;;;5003802;28;1055;-70
2023/08/10 01:31:55;;;;;;;;;;;20.50;71.20;;;;;;5003383;28;800;-69
2023/08/10 01:34:21;;;;;;;;;;;20.50;71.20;;;;;;5002013;28;1093;-70
2023/08/10 01:36:46;;;;;;;;;;;20.50;71.20;;;;;;4999415;28;1164;-70
2023/08/10 01:39:11;;;;;;;;;;;20.50;71.20;;;;;;5010536;28;1026;-70
2023/08/10 01:41:37;;;;;;;;;;;20.50;71.20;;;;;;5002276;28;1973;-70
2023/08/10 01:44:03;;;;;;;;;;;20.50;71.20;;;;;;5004419;28;769;-70
2023/08/10 01:46:28;;;;;;;;;;;20.50;71.90;;;;;;5005039;28;1292;-70
2023/08/10 01:48:54;;;;;;;;;;;20.50;71.20;;;;;;5006572;28;1389;-70
2023/08/10 01:51:21;;;;;;;;;;;20.50;71.20;;;;;;5005309;28;916;-69
2023/08/10 01:53:47;;;;;;;;;;;20.50;71.20;;;;;;5001066;28;904;-69
2023/08/10 01:56:12;;;;;;;;;;;20.50;71.20;;;;;;5002606;28;1255;-69
2023/08/10 01:58:37;;;;;;;;;;;20.50;71.20;;;;;;5002563;28;865;-68
2023/08/10 02:01:03;;;;;;;;;;;20.50;71.20;;;;;;4999746;28;871;-69
2023/08/10 02:03:28;;;;;;;;;;;20.50;71.20;;;;;;5001549;28;1899;-69
2023/08/10 02:05:54;;;;;;;;;;;20.50;71.20;;;;;;5002747;28;1383;-69
2023/08/10 02:08:19;;;;;;;;;;;20.50;71.20;;;;;;4988299;28;900;-69
2023/08/10 02:10:45;;;;;;;;;;;20.50;71.20;;;;;;4999098;28;1380;-69
2023/08/10 02:13:10;;;;;;;;;;;20.50;71.20;;;;;;5004393;28;809;-69
2023/08/10 02:15:36;;;;;;;;;;;20.50;71.20;;;;;;5001233;28;1269;-69
2023/08/10 02:18:02;;;;;;;;;;;20.50;71.20;;;;;;5001972;28;824;-70
2023/08/10 02:20:27;;;;;;;;;;;20.50;71.20;;;;;;5010189;28;1239;-70
2023/08/10 02:22:53;;;;;;;;;;;20.50;71.20;;;;;;4996494;28;1907;-70
2023/08/10 02:25:18;;;;;;;;;;;20.50;71.20;;;;;;5003703;28;1287;-70
2023/08/10 02:27:44;;;;;;;;;;;20.50;71.20;;;;;;5000957;28;1033;-71
2023/08/10 02:30:10;;;;;;;;;;;20.50;71.30;;;;;;5001933;28;890;-70
2023/08/10 02:32:35;;;;;;;;;;;20.50;71.30;;;;;;5002096;28;813;-70
2023/08/10 02:35:02;;;;;;;;;;;20.50;71.30;;;;;;5004480;28;1239;-70
2023/08/10 02:37:28;;;;;;;;;;;20.50;71.30;;;;;;4998200;28;927;-70
2023/08/10 02:39:54;;;;;;;;;;;20.50;71.30;;;;;;5001123;28;1282;-70
2023/08/10 02:42:20;;;;;;;;;;;20.50;71.20;;;;;;5001169;28;1961;-69
2023/08/10 02:44:46;;;;;;;;;;;20.50;71.30;;;;;;5001262;28;1314;-69
2023/08/10 02:47:12;;;;;;;;;;;20.50;71.20;;;;;;5006717;28;797;-69
2023/08/10 02:49:38;;;;;;;;;;;20.50;71.20;;;;;;5005060;28;860;-69
2023/08/10 02:52:04;;;;;;;;;;;20.50;71.30;;;;;;5000305;28;1094;-70
2023/08/10 02:54:29;;;;;;;;;;;20.50;71.30;;;;;;5002594;28;911;-70
2023/08/10 02:56:55;;;;;;;;;;;20.50;71.20;;;;;;5007794;28;1267;-70
2023/08/10 02:59:20;;;;;;;;;;;20.50;71.20;;;;;;5005391;28;820;-69
2023/08/10 03:01:46;;;;;;;;;;;20.50;71.20;;;;;;5008034;28;1907;-70
2023/08/10 03:04:12;;;;;;;;;;;20.50;71.30;;;;;;5000861;28;773;-69
2023/08/10 03:06:37;;;;;;;;;;;20.50;72.00;;;;;;5004323;28;1352;-70
2023/08/10 03:09:03;;;;;;;;;;;20.50;71.30;;;;;;4999401;28;923;-69
2023/08/10 03:11:29;;;;;;;;;;;20.50;71.30;;;;;;4998691;28;912;-69
2023/08/10 03:13:55;;;;;;;;;;;20.50;71.30;;;;;;4997876;28;817;-69
2023/08/10 03:16:20;;;;;;;;;;;20.50;71.30;;;;;;5000169;28;1273;-70
2023/08/10 03:18:46;;;;;;;;;;;20.50;71.30;;;;;;5005397;28;979;-69
2023/08/10 03:21:11;;;;;;;;;;;20.50;71.30;;;;;;5003544;28;747;-69
2023/08/10 03:23:36;;;;;;;;;;;20.50;71.30;;;;;;5001917;28;1954;-69
2023/08/10 03:26:02;;;;;;;;;;;20.50;71.30;;;;;;5005016;28;1242;-70
2023/08/10 03:28:27;;;;;;;;;;;20.50;71.30;;;;;;4999507;28;1341;-70
2023/08/10 03:30:53;;;;;;;;;;;20.50;71.30;;;;;;5002582;28;872;-70
2023/08/10 03:33:18;;;;;;;;;;;20.50;71.20;;;;;;5002278;28;862;-70
2023/08/10 03:35:44;;;;;;;;;;;20.50;71.30;;;;;;5000710;28;1367;-70
2023/08/10 03:38:10;;;;;;;;;;;20.50;71.30;;;;;;4982488;28;1241;-69
2023/08/10 03:40:35;;;;;;;;;;;20.50;71.30;;;;;;4999849;28;1357;-69
2023/08/10 03:43:01;;;;;;;;;;;20.50;71.30;;;;;;5004245;28;1898;-69
2023/08/10 03:45:26;;;;;;;;;;;20.50;71.40;;;;;;5001629;28;1336;-69
2023/08/10 03:47:52;;;;;;;;;;;20.50;71.30;;;;;;5001955;28;809;-69
2023/08/10 03:50:17;;;;;;;;;;;20.50;71.30;;;;;;4983887;28;911;-69
2023/08/10 03:52:42;;;;;;;;;;;20.50;71.40;;;;;;4999881;28;1003;-69
2023/08/10 03:55:08;;;;;;;;;;;20.50;71.30;;;;;;5007844;28;1383;-69
2023/08/10 03:57:34;;;;;;;;;;;20.50;71.30;;;;;;4999280;28;809;-69
2023/08/10 03:59:59;;;;;;;;;;;20.50;71.30;;;;;;4992398;28;1312;-69
2023/08/10 04:02:25;;;;;;;;;;;20.50;71.30;;;;;;5005684;28;1967;-70
2023/08/10 04:04:50;;;;;;;;;;;20.50;71.30;;;;;;5003860;28;1201;-69
2023/08/10 04:07:16;;;;;;;;;;;20.50;71.30;;;;;;5000884;28;868;-70
2023/08/10 04:09:46;;;;;;;;;;;20.50;71.30;;;;;;4998665;28;785;-69
2023/08/10 04:12:12;;;;;;;;;;;20.50;71.60;;;;;;4999282;28;912;-69
2023/08/10 04:14:37;;;;;;;;;;;20.50;71.30;;;;;;5007731;28;1343;-69
2023/08/10 04:17:03;;;;;;;;;;;20.50;71.40;;;;;;5000171;28;1062;-69
2023/08/10 04:19:30;;;;;;;;;;;20.50;71.30;;;;;;4995547;28;951;-69
2023/08/10 04:21:56;;;;;;;;;;;20.50;71.30;;;;;;4995355;28;1907;-69
2023/08/10 04:24:21;;;;;;;;;;;20.50;71.30;;;;;;4998121;28;907;-69
2023/08/10 04:26:47;;;;;;;;;;;20.50;71.30;;;;;;5005505;28;1178;-69
2023/08/10 04:29:12;;;;;;;;;;;20.50;71.40;;;;;;5008738;28;865;-69
2023/08/10 04:31:37;;;;;;;;;;;20.50;71.30;;;;;;5008961;28;857;-69
2023/08/10 04:34:03;;;;;;;;;;;20.50;71.30;;;;;;5008319;28;797;-69
2023/08/10 04:36:29;;;;;;;;;;;20.50;71.30;;;;;;5002288;28;1214;-69
2023/08/10 04:38:54;;;;;;;;;;;20.50;71.30;;;;;;4997898;28;884;-69
2023/08/10 04:41:19;;;;;;;;;;;20.50;71.30;;;;;;5004150;28;1898;-69
2023/08/10 04:43:45;;;;;;;;;;;20.50;71.30;;;;;;5004458;28;825;-69
2023/08/10 04:46:10;;;;;;;;;;;20.50;71.30;;;;;;5006077;28;1336;-69
2023/08/10 04:48:36;;;;;;;;;;;20.50;71.30;;;;;;5000821;28;944;-69
2023/08/10 04:51:01;;;;;;;;;;;20.50;71.30;;;;;;5001197;28;1384;-70
2023/08/10 04:53:27;;;;;;;;;;;20.50;71.30;;;;;;4991234;28;831;-69
2023/08/10 04:55:52;;;;;;;;;;;20.50;71.40;;;;;;4984467;28;1246;-69
2023/08/10 04:58:18;;;;;;;;;;;20.50;71.40;;;;;;4993947;28;720;-70
2023/08/10 05:00:43;;;;;;;;;;;20.50;71.30;;;;;;4990634;28;829;-69
2023/08/10 05:03:09;;;;;;;;;;;20.50;71.40;;;;;;4996145;28;1887;-70
2023/08/10 05:05:34;;;;;;;;;;;20.50;71.30;;;;;;5001713;28;1338;-70
2023/08/10 05:08:00;;;;;;;;;;;20.50;71.30;;;;;;5001235;28;1192;-70
2023/08/10 05:10:25;;;;;;;;;;;20.50;71.30;;;;;;4998574;28;873;-70
2023/08/10 05:12:51;;;;;;;;;;;20.50;71.30;;;;;;5000119;28;801;-70
2023/08/10 05:15:16;;;;;;;;;;;20.50;71.30;;;;;;5000848;28;1349;-70
2023/08/10 05:17:42;;;;;;;;;;;20.50;71.30;;;;;;4990861;28;1083;-70
2023/08/10 05:20:10;;;;;;;;;;;20.50;71.40;;;;;;5002330;28;1458;-70
2023/08/10 05:22:40;;;;;;;;;;;20.50;71.40;;;;;;4995173;28;1914;-70
2023/08/10 05:25:06;;;;;;;;;;;20.50;71.30;;;;;;4977513;28;1293;-70
2023/08/10 05:27:31;;;;;;;;;;;20.50;71.40;;;;;;5004134;28;962;-69
2023/08/10 05:29:57;;;;;;;;;;;20.50;71.30;;;;;;4996015;28;856;-70
2023/08/10 05:32:22;;;;;;;;;;;20.50;71.40;;;;;;4996896;28;975;-70
2023/08/10 05:34:48;;;;;;;;;;;20.50;71.40;;;;;;4998367;28;1336;-70
2023/08/10 05:37:13;;;;;;;;;;;20.50;71.40;;;;;;4997893;28;856;-70
2023/08/10 05:39:39;;;;;;;;;;;20.50;71.40;;;;;;4993711;28;951;-70
2023/08/10 05:42:05;;;;;;;;;;;20.50;71.40;;;;;;4993816;28;1952;-70
2023/08/10 05:44:30;;;;;;;;;;;20.50;71.40;;;;;;4997551;28;840;-69
2023/08/10 05:46:56;;;;;;;;;;;20.50;70.70;;;;;;5000985;28;1390;-69
2023/08/10 05:49:21;;;;;;;;;;;20.50;69.40;;;;;;4998141;28;1078;-69
2023/08/10 05:51:47;;;;;;;;;;;20.50;69.10;;;;;;4998716;28;1007;-69
2023/08/10 05:54:12;;;;;;;;;;;20.50;69.70;;;;;;4998248;28;1217;-69
2023/08/10 05:56:38;;;;;;;;;;;20.50;69.10;;;;;;4998550;28;1208;-69
2023/08/10 05:59:03;;;;;;;;;;;20.50;69.30;;;;;;4985304;28;882;-69
2023/08/10 06:01:29;;;;;;;;;;;20.50;68.90;;;;;;4997219;28;1894;-70
2023/08/10 06:03:54;;;;;;;;;;;20.50;68.80;;;;;;4997285;28;1437;-69
2023/08/10 06:06:20;;;;;;;;;;;20.50;68.70;;;;;;5012192;28;1249;-71
2023/08/10 06:08:49;;;;;;;;;;;20.50;68.60;;;;;;5015782;28;985;-70
2023/08/10 06:11:15;;;;;;;;;;;20.50;68.60;;;;;;5014317;28;1473;-70
2023/08/10 06:13:41;;;;;;;;;;;20.50;68.60;;;;;;5007724;28;907;-70
2023/08/10 06:16:07;;;;;;;;;;;20.50;68.40;;;;;;5005042;28;1214;-69
2023/08/10 06:18:34;;;;;;;;;;;20.50;68.40;;;;;;5004307;28;855;-70
2023/08/10 06:21:01;;;;;;;;;;;20.50;68.50;;;;;;5000269;28;1354;-68
2023/08/10 06:23:28;;;;;;;;;;;20.50;68.20;;;;;;5000754;28;1930;-68
2023/08/10 06:25:54;;;;;;;;;;;20.40;68.20;;;;;;5004250;28;1332;-68
2023/08/10 06:28:20;;;;;;;;;;;20.50;68.20;;;;;;4997298;28;1262;-70
2023/08/10 06:30:46;;;;;;;;;;;20.50;68.00;;;;;;5002847;28;804;-70
2023/08/10 06:33:11;;;;;;;;;;;20.50;67.90;;;;;;4997363;28;2502;-72
2023/08/10 06:35:38;;;;;;;;;;;20.50;67.90;;;;;;4998313;28;1457;-70
2023/08/10 06:38:04;;;;;;;;;;;20.50;67.90;;;;;;4989689;28;1636;-69
2023/08/10 06:40:32;;;;;;;;;;;20.50;67.70;;;;;;5002849;28;1375;-69
2023/08/10 06:42:58;;;;;;;;;;;20.50;67.80;;;;;;5007925;28;1967;-70
2023/08/10 06:45:23;;;;;;;;;;;20.50;67.80;;;;;;5003314;28;1303;-69
2023/08/10 06:47:49;;;;;;;;;;;20.50;67.70;;;;;;4997353;28;935;-71
2023/08/10 06:50:15;;;;;;;;;;;20.50;67.50;;;;;;4998776;28;821;-71
2023/08/10 06:52:41;;;;;;;;;;;20.50;67.30;;;;;;5002596;28;869;-69
2023/08/10 06:55:07;;;;;;;;;;;20.50;67.40;;;;;;4998487;28;1297;-69
2023/08/10 06:57:34;;;;;;;;;;;20.50;67.20;;;;;;4998236;28;933;-72
2023/08/10 07:00:00;;;;;;;;;;;20.50;67.00;;;;;;5000687;28;1645;-72
2023/08/10 07:02:26;;;;;;;;;;;20.50;66.90;;;;;;4999539;28;1902;-72
2023/08/10 07:04:52;;;;;;;;;;;20.50;67.00;;;;;;5000993;28;2021;-71
2023/08/10 07:07:17;;;;;;;;;;;20.50;67.20;;;;;;5000706;28;1396;-72
2023/08/10 07:09:43;;;;;;;;;;;20.50;67.20;;;;;;5002490;28;1190;-72
2023/08/10 07:12:08;;;;;;;;;;;20.50;66.90;;;;;;5002033;28;1410;-72
2023/08/10 07:14:34;;;;;;;;;;;20.50;66.60;;;;;;4998933;28;860;-72
2023/08/10 07:16:59;;;;;;;;;;;20.50;66.40;;;;;;4999483;28;1198;-71
2023/08/10 07:19:25;;;;;;;;;;;20.40;66.30;;;;;;5004887;28;1370;-71
2023/08/10 07:21:55;;;;;;;;;;;20.40;66.00;;;;;;4999173;28;1911;-71
2023/08/10 07:24:22;;;;;;;;;;;20.40;65.90;;;;;;4998052;28;871;-71
2023/08/10 07:26:48;;;;;;;;;;;20.50;65.70;;;;;;5001708;28;1287;-71
2023/08/10 07:29:13;;;;;;;;;;;20.40;65.40;;;;;;5001996;28;816;-71
2023/08/10 07:31:39;;;;;;;;;;;20.40;65.20;;;;;;4999543;28;872;-71
2023/08/10 07:34:04;;;;;;;;;;;20.40;65.00;;;;;;4982194;28;1198;-71
2023/08/10 07:36:30;;;;;;;;;;;20.40;64.90;;;;;;4991892;28;1674;-71
2023/08/10 07:38:55;;;;;;;;;;;20.40;64.40;;;;;;4999614;28;1242;-71
2023/08/10 07:41:24;;;;;;;;;;;20.40;64.20;;;;;;4997713;28;948;-71
2023/08/10 07:43:49;;;;;;;;;;;20.40;64.50;;;;;;4991262;28;1309;-71
2023/08/10 07:46:15;;;;;;;;;;;20.40;64.50;;;;;;5000581;28;1213;-71
2023/08/10 07:48:41;;;;;;;;;;;20.40;64.60;;;;;;4999500;28;810;-71
2023/08/10 07:51:06;;;;;;;;;;;20.40;64.80;;;;;;5001165;28;849;-70
2023/08/10 07:53:32;;;;;;;;;;;20.40;64.60;;;;;;4996791;28;888;-73
2023/08/10 07:55:58;;;;;;;;;;;20.40;64.60;;;;;;4996429;28;1347;-71
2023/08/10 07:58:23;;;;;;;;;;;20.40;64.40;;;;;;4997599;28;1857;-71
2023/08/10 08:00:49;;;;;;;;;;;20.40;64.30;;;;;;5002803;28;1439;-71
2023/08/10 08:03:14;;;;;;;;;;;20.40;64.20;;;;;;4984162;28;2127;-71
2023/08/10 08:05:40;;;;;;;;;;;20.40;64.20;;;;;;5000083;28;1403;-71
2023/08/10 08:08:06;;;;;;;;;;;20.40;64.20;;;;;;4999640;28;1408;-72
2023/08/10 08:10:32;;;;;;;;;;;20.40;64.40;;;;;;4997817;28;1299;-72
2023/08/10 08:12:57;;;;;;;;;;;20.40;64.20;;;;;;4997741;28;1006;-72
2023/08/10 08:15:23;;;;;;;;;;;20.40;63.90;;;;;;5000917;28;1251;-72
2023/08/10 08:18:08;;;;;;;;;;;20.40;64.80;;;;;;4996547;28;1251;-72
2023/08/10 08:20:34;;;;;;;;;;;20.40;64.00;;;;;;5000114;28;892;-71
2023/08/10 08:22:59;;;;;;;;;;;20.40;64.00;;;;;;4994686;28;1977;-72
2023/08/10 08:25:25;;;;;;;;;;;20.40;64.00;;;;;;4998096;28;1285;-73
2023/08/10 08:27:50;;;;;;;;;;;20.40;63.80;;;;;;4995632;28;1279;-72
2023/08/10 08:30:15;;;;;;;;;;;20.40;63.70;;;;;;4996878;28;817;-72
2023/08/10 08:32:41;;;;;;;;;;;20.40;63.70;;;;;;5005655;28;844;-73
2023/08/10 08:35:07;;;;;;;;;;;20.40;63.60;;;;;;4990392;28;1280;-73
2023/08/10 08:37:32;;;;;;;;;;;20.40;63.50;;;;;;4998431;28;805;-73
2023/08/10 08:39:58;;;;;;;;;;;20.40;63.50;;;;;;4997600;28;983;-73
2023/08/10 08:42:23;;;;;;;;;;;20.40;63.10;;;;;;4998345;28;1903;-73
2023/08/10 08:44:48;;;;;;;;;;;20.40;63.40;;;;;;4984925;28;1286;-73
2023/08/10 08:47:14;;;;;;;;;;;20.40;63.20;;;;;;4997227;28;958;-72
2023/08/10 08:49:39;;;;;;;;;;;20.40;63.30;;;;;;4984660;28;1098;-73
2023/08/10 08:52:05;;;;;;;;;;;20.40;63.10;;;;;;4994263;28;976;-72
2023/08/10 08:54:30;;;;;;;;;;;20.40;63.50;;;;;;4999249;28;1540;-68
2023/08/10 08:56:56;;;;;;;;;;;20.40;63.40;;;;;;4996586;28;1397;-71
2023/08/10 08:59:21;;;;;;;;;;;20.40;63.20;;;;;;4980527;28;1444;-70
2023/08/10 09:01:47;;;;;;;;;;;20.40;63.00;;;;;;4993037;28;1910;-71
2023/08/10 09:04:13;;;;;;;;;;;20.40;63.20;;;;;;4998591;28;896;-71
2023/08/10 09:06:38;;;;;;;;;;;20.40;63.30;;;;;;5000707;28;1267;-71
2023/08/10 09:09:04;;;;;;;;;;;20.40;62.80;;;;;;4996782;28;927;-71
2023/08/10 09:11:29;;;;;;;;;;;20.40;62.70;;;;;;4995608;28;895;-71
2023/08/10 09:14:03;;;;;;;;;;;20.40;62.50;;;;;;4982371;28;1086;-71
2023/08/10 09:16:29;;;;;;;;;;;20.40;62.30;;;;;;4983911;28;1311;-71
2023/08/10 09:18:54;;;;;;;;;;;20.40;62.00;;;;;;4995543;28;853;-71
2023/08/10 09:21:23;;;;;;;;;;;20.40;62.20;;;;;;4996740;28;808;-71
2023/08/10 09:23:52;;;;;;;;;;;20.40;62.30;;;;;;4999867;28;1890;-71
2023/08/10 09:26:18;;;;;;;;;;;20.40;62.40;;;;;;4996694;28;2129;-71
2023/08/10 09:28:43;;;;;;;;;;;20.40;62.50;;;;;;4981399;28;1331;-72
2023/08/10 09:31:09;;;;;;;;;;;20.40;62.20;;;;;;4993355;28;1963;-71
2023/08/10 09:33:35;;;;;;;;;;;20.40;61.80;;;;;;4999934;28;1333;-71
2023/08/10 09:36:01;;;;;;;;;;;20.40;62.00;;;;;;4994213;28;1399;-71
2023/08/10 09:38:26;;;;;;;;;;;20.40;61.70;;;;;;4996346;28;845;-72
2023/08/10 09:41:11;;;;;;;;;;;20.40;61.50;;;;;;5000266;28;1292;-73
2023/08/10 09:43:37;;;;;;;;;;;20.40;61.50;;;;;;4998121;28;1987;-71
2023/08/10 09:46:04;;;;;;;;;;;20.40;61.40;;;;;;4995577;28;1300;-74
2023/08/10 09:48:59;;;;;;;;;;;20.40;61.20;;;;;;4995461;28;1100;-71
2023/08/10 09:51:24;;;;;;;;;;;20.40;61.50;;;;;;4990387;28;1275;-73
2023/08/10 09:53:50;;;;;;;;;;;20.40;61.90;;;;;;4992518;28;916;-74
2023/08/10 09:56:15;;;;;;;;;;;20.40;61.70;;;;;;4984193;28;1361;-73
2023/08/10 09:58:41;;;;;;;;;;;20.40;61.50;;;;;;4996853;28;1343;-70
2023/08/10 10:01:07;;;;;;;;;;;20.40;61.70;;;;;;5003790;28;919;-70
2023/08/10 10:03:33;;;;;;;;;;;20.40;61.70;;;;;;5000929;28;1926;-72
2023/08/10 10:05:58;;;;;;;;;;;20.40;62.00;;;;;;4987485;28;1287;-71
2023/08/10 10:08:27;;;;;;;;;;;20.40;62.10;;;;;;4986423;28;1006;-73
2023/08/10 10:10:57;;;;;;;;;;;20.40;62.00;;;;;;4985490;28;2118;-72
2023/08/10 10:13:22;;;;;;;;;;;20.40;62.00;;;;;;4998630;28;1321;-71
2023/08/10 10:15:48;;;;;;;;;;;20.40;62.00;;;;;;4977294;28;1404;-71
2023/08/10 10:18:14;;;;;;;;;;;20.40;62.00;;;;;;4997039;28;948;-71
2023/08/10 10:20:40;;;;;;;;;;;20.40;61.80;;;;;;4998023;28;867;-72
2023/08/10 10:23:32;;;;;;;;;;;20.40;61.80;;;;;;4997664;28;1930;-72
2023/08/10 10:26:02;;;;;;;;;;;20.40;61.80;;;;;;4997505;28;1247;-72
2023/08/10 10:28:31;;;;;;;;;;;20.40;62.10;;;;;;4997925;28;1350;-72
2023/08/10 10:31:05;;;;;;;;;;;20.40;61.30;;;;;;4985107;28;918;-72
2023/08/10 10:33:33;;;;;;;;;;;20.50;62.20;;;;;;4998843;28;948;-71
2023/08/10 10:36:09;;;;;;;;;;;20.50;61.70;;;;;;4985155;28;1349;-72
2023/08/10 10:38:34;;;;;;;;;;;20.50;61.90;;;;;;4997616;28;1251;-72
2023/08/10 10:41:10;;;;;;;;;;;20.50;61.80;;;;;;5000793;28;905;-71
2023/08/10 10:43:35;;;;;;;;;;;20.50;61.80;;;;;;5000699;28;1984;-72
2023/08/10 10:46:01;;;;;;;;;;;20.50;62.00;;;;;;4998527;28;1304;-71
2023/08/10 10:48:33;;;;;;;;;;;20.40;61.90;;;;;;4988220;28;887;-72
2023/08/10 10:51:01;;;;;;;;;;;20.50;62.00;;;;;;4996472;28;923;-72
2023/08/10 10:53:26;;;;;;;;;;;20.50;61.60;;;;;;4997809;28;895;-72
2023/08/10 10:55:52;;;;;;;;;;;20.50;61.70;;;;;;4988565;28;1358;-72
2023/08/10 10:58:17;;;;;;;;;;;20.50;61.80;;;;;;4984585;28;873;-71
2023/08/10 11:00:43;;;;;;;;;;;20.50;61.50;;;;;;5003690;28;1096;-72
2023/08/10 11:03:09;;;;;;;;;;;20.50;61.60;;;;;;4996806;28;1886;-72
2023/08/10 11:05:35;;;;;;;;;;;20.50;61.60;;;;;;4998823;28;1274;-72
2023/08/10 11:08:03;;;;;;;;;;;20.50;61.70;;;;;;5000615;28;1077;-72
2023/08/10 11:10:29;;;;;;;;;;;20.50;61.40;;;;;;4999411;28;919;-72
2023/08/10 11:12:54;;;;;;;;;;;20.50;62.10;;;;;;5000798;28;2251;-71
2023/08/10 11:15:20;;;;;;;;;;;20.50;62.20;;;;;;4985787;28;1903;-70
2023/08/10 11:17:51;;;;;;;;;;;20.50;62.30;;;;;;4992534;28;1452;-72
2023/08/10 11:20:17;;;;;;;;;;;20.50;62.10;;;;;;4999687;28;1136;-71
2023/08/10 11:22:42;;;;;;;;;;;20.50;62.00;;;;;;5002328;28;1898;-72
2023/08/10 11:25:12;;;;;;;;;;;20.50;62.00;;;;;;5002716;28;1334;-72
2023/08/10 11:27:47;;;;;;;;;;;20.50;61.90;;;;;;4998872;28;1383;-71
2023/08/10 11:30:13;;;;;;;;;;;20.50;61.50;;;;;;4978369;28;911;-72
2023/08/10 11:32:40;;;;;;;;;;;20.50;61.30;;;;;;4981757;28;900;-71
2023/08/10 11:35:06;;;;;;;;;;;20.50;61.20;;;;;;4995332;28;1281;-71
2023/08/10 11:37:33;;;;;;;;;;;20.50;60.50;;;;;;4996689;28;757;-71
2023/08/10 11:40:11;;;;;;;;;;;20.50;61.20;;;;;;5000341;28;998;-72
2023/08/10 11:42:40;;;;;;;;;;;20.50;61.50;;;;;;5001006;28;1964;-72
2023/08/10 11:45:09;;;;;;;;;;;20.50;61.70;;;;;;4996080;28;1289;-72
2023/08/10 11:47:39;;;;;;;;;;;20.50;62.10;;;;;;4998488;28;989;-71
2023/08/10 11:50:06;;;;;;;;;;;20.50;62.10;;;;;;4999396;28;812;-71
2023/08/10 11:52:31;;;;;;;;;;;20.50;62.10;;;;;;4983285;28;900;-71
2023/08/10 11:54:57;;;;;;;;;;;20.50;61.40;;;;;;4994274;28;1323;-71
2023/08/10 11:57:22;;;;;;;;;;;20.50;62.00;;;;;;4995994;28;941;-71
2023/08/10 11:59:48;;;;;;;;;;;20.50;61.10;;;;;;4999201;28;868;-72
2023/08/10 12:02:16;;;;;;;;;;;20.50;61.20;;;;;;4997016;28;1898;-70
2023/08/10 12:04:42;;;;;;;;;;;20.50;61.70;;;;;;4999286;28;1339;-71
2023/08/10 12:07:07;;;;;;;;;;;20.50;62.00;;;;;;4989130;28;2407;-69
2023/08/10 12:09:33;;;;;;;;;;;20.50;61.80;;;;;;4998343;28;1423;-70
2023/08/10 12:11:58;;;;;;;;;;;20.50;62.00;;;;;;4990563;28;1427;-69
2023/08/10 12:14:24;;;;;;;;;;;20.50;62.00;;;;;;5000804;28;1397;-70
2023/08/10 12:16:50;;;;;;;;;;;20.50;61.90;;;;;;5003672;28;1538;-71
2023/08/10 12:19:15;;;;;;;;;;;20.50;61.80;;;;;;5001661;28;1274;-70
2023/08/10 12:21:41;;;;;;;;;;;20.50;61.90;;;;;;5002400;28;1980;-72
2023/08/10 12:24:06;;;;;;;;;;;20.50;62.10;;;;;;4999661;28;1030;-72
2023/08/10 12:26:32;;;;;;;;;;;20.50;62.10;;;;;;4982724;28;1361;-72
2023/08/10 12:28:57;;;;;;;;;;;20.50;61.00;;;;;;4980358;28;1409;-73
2023/08/10 12:31:24;;;;;;;;;;;20.50;61.40;;;;;;4986997;28;1339;-71
2023/08/10 12:33:51;;;;;;;;;;;20.50;61.40;;;;;;4991218;28;853;-72
2023/08/10 12:36:16;;;;;;;;;;;20.50;61.90;;;;;;4994266;28;1349;-72
2023/08/10 12:38:42;;;;;;;;;;;20.50;61.90;;;;;;4994001;28;1258;-72
2023/08/10 12:41:07;;;;;;;;;;;20.50;61.60;;;;;;4979027;28;1410;-71
2023/08/10 12:43:33;;;;;;;;;;;20.50;61.80;;;;;;4990958;28;1938;-73
2023/08/10 12:45:58;;;;;;;;;;;20.50;61.80;;;;;;5000499;28;1282;-72
2023/08/10 12:48:24;;;;;;;;;;;20.50;61.60;;;;;;4997317;28;817;-71
2023/08/10 12:50:49;;;;;;;;;;;20.50;60.90;;;;;;4996487;28;1294;-70
2023/08/10 12:53:14;;;;;;;;;;;20.60;61.10;;;;;;4995132;28;1022;-70
2023/08/10 12:55:40;;;;;;;;;;;20.60;61.40;;;;;;5000656;28;1602;-70
2023/08/10 12:58:07;;;;;;;;;;;20.60;61.20;;;;;;4999623;28;1594;-69
2023/08/10 13:00:33;;;;;;;;;;;20.60;61.00;;;;;;4985757;28;896;-70
2023/08/10 13:02:58;;;;;;;;;;;20.60;61.10;;;;;;4999351;28;1957;-72
2023/08/10 13:05:25;;;;;;;;;;;20.60;61.00;;;;;;5001706;28;1316;-71
2023/08/10 13:07:50;;;;;;;;;;;20.60;61.10;;;;;;4995755;28;911;-70
2023/08/10 13:10:16;;;;;;;;;;;20.60;60.60;;;;;;4997576;28;924;-69
2023/08/10 13:12:41;;;;;;;;;;;20.60;61.00;;;;;;4998877;28;892;-71
2023/08/10 13:15:07;;;;;;;;;;;20.60;60.40;;;;;;5001582;28;1266;-70
2023/08/10 13:17:33;;;;;;;;;;;20.60;60.70;;;;;;5002510;28;871;-70
2023/08/10 13:20:03;;;;;;;;;;;20.60;60.50;;;;;;5001336;28;1309;-70
2023/08/10 13:22:32;;;;;;;;;;;20.70;60.60;;;;;;5004251;28;1903;-69
2023/08/10 13:24:58;;;;;;;;;;;20.60;60.70;;;;;;5001150;28;1302;-71
2023/08/10 13:27:24;;;;;;;;;;;20.70;60.30;;;;;;5002413;28;899;-70
2023/08/10 13:29:49;;;;;;;;;;;20.70;60.70;;;;;;4998989;28;922;-71
2023/08/10 13:32:15;;;;;;;;;;;20.70;60.00;;;;;;4998112;28;994;-72
2023/08/10 13:34:41;;;;;;;;;;;20.70;59.90;;;;;;5002549;28;1344;-71
2023/08/10 13:37:07;;;;;;;;;;;20.70;60.00;;;;;;5001285;28;867;-71
2023/08/10 13:39:32;;;;;;;;;;;20.70;60.40;;;;;;5001153;28;1235;-71
2023/08/10 13:41:58;;;;;;;;;;;20.70;59.80;;;;;;5000076;28;1906;-70
2023/08/10 13:44:23;;;;;;;;;;;20.70;60.00;;;;;;4991743;28;1141;-72
2023/08/10 13:46:49;;;;;;;;;;;20.60;60.00;;;;;;5003698;28;1265;-71
2023/08/10 13:49:15;;;;;;;;;;;20.60;59.30;;;;;;5001890;28;851;-70
2023/08/10 13:51:41;;;;;;;;;;;20.70;58.70;;;;;;5001868;28;873;-71
2023/08/10 13:54:06;;;;;;;;;;;20.60;58.60;;;;;;5001784;28;1283;-71
2023/08/10 13:56:50;;;;;;;;;;;20.70;59.60;;;;;;5002298;28;1475;-71
2023/08/10 13:59:15;;;;;;;;;;;20.70;59.60;;;;;;5003623;28;1226;-71
2023/08/10 14:01:41;;;;;;;;;;;20.70;59.40;;;;;;4999657;28;1895;-71
2023/08/10 14:04:07;;;;;;;;;;;20.70;58.60;;;;;;5000586;28;1079;-71
2023/08/10 14:06:33;;;;;;;;;;;20.70;58.30;;;;;;5000057;28;1216;-70
2023/08/10 14:08:58;;;;;;;;;;;20.70;58.20;;;;;;5001283;28;845;-71
2023/08/10 14:11:24;;;;;;;;;;;20.70;57.80;;;;;;5002122;28;1209;-71
2023/08/10 14:13:49;;;;;;;;;;;20.70;57.90;;;;;;5004094;28;851;-70
2023/08/10 14:16:15;;;;;;;;;;;20.70;57.80;;;;;;4999563;28;1275;-72
2023/08/10 14:18:41;;;;;;;;;;;20.70;57.80;;;;;;5001022;28;1324;-71
2023/08/10 14:21:06;;;;;;;;;;;20.70;57.60;;;;;;4987362;28;893;-72
2023/08/10 14:23:32;;;;;;;;;;;20.70;57.50;;;;;;4999471;28;2110;-70
2023/08/10 14:25:57;;;;;;;;;;;20.70;56.80;;;;;;4998111;28;1358;-70
2023/08/10 14:28:23;;;;;;;;;;;20.70;57.40;;;;;;4998997;28;1365;-71
2023/08/10 14:30:48;;;;;;;;;;;20.70;57.50;;;;;;4997413;28;1110;-71